Cincinnati, Ohio
Traffic Map
Current Weather Conditions
Cincinnati, Ohio
Clear
Clear
79°
Feels Like: 80°
Wind Chill: 79° Ceiling: Unl
Heat Index: 80° Visibility: 10mi
Dew Point: 61° Wind: 9mph
Humidity: 54% Direction: 60° (ENE)
Pressure: 30.14in Gusts: 0mph
Raw Report DataKLUK 231953Z 06008KT 10SM CLR 26/16 A3014 RMK AO2 SLP202 T02610161
Traffic Incident Summary
Active as of:
Severity:
Category:
InformationThere was an issue retrieving the traffic information for this location. Please try a different location or try again shortly.
Advertisements